Time;durP1;ratioP1;P1;durP2;ratioP2;P2;SDS_P1;SDS_P2;PMS_P1;PMS_P2;Temp;Humidity;BMP_temperature;BMP_pressure;BME280_temperature;BME280_humidity;BME280_pressure;Samples;Min_cycle;Max_cycle;Signal;HPM_P1;HPM_P2
2023/10/03 00:01:03;;;;;;;9.70;9.50;;;18.50;99.90;;;;;;5099984;28;21007;-65
2023/10/03 00:03:30;;;;;;;9.50;9.30;;;18.50;99.90;;;;;;5099802;28;20457;-65
2023/10/03 00:05:56;;;;;;;9.67;9.47;;;18.50;99.90;;;;;;5101077;28;20870;-65
2023/10/03 00:08:25;;;;;;;9.80;9.60;;;18.50;99.90;;;;;;5093010;28;20468;-65
2023/10/03 00:10:54;;;;;;;9.73;9.53;;;18.50;99.90;;;;;;5101678;28;21018;-66
2023/10/03 00:13:22;;;;;;;9.70;9.50;;;18.50;99.90;;;;;;5096878;28;20521;-66
2023/10/03 00:15:50;;;;;;;9.60;9.40;;;18.50;99.90;;;;;;5101725;28;20543;-65
2023/10/03 00:18:17;;;;;;;9.73;9.53;;;18.50;99.90;;;;;;5095978;28;20477;-65
2023/10/03 00:20:44;;;;;;;9.40;9.20;;;18.60;99.90;;;;;;5098496;28;20488;-65
2023/10/03 00:23:11;;;;;;;9.60;9.40;;;18.60;99.90;;;;;;5099683;28;20612;-66
2023/10/03 00:25:38;;;;;;;9.77;9.57;;;18.60;99.90;;;;;;5092488;28;20921;-67
2023/10/03 00:28:06;;;;;;;9.43;9.23;;;18.60;99.90;;;;;;5109173;28;20464;-66
2023/10/03 00:30:36;;;;;;;9.50;9.30;;;18.60;99.90;;;;;;5097291;28;20823;-65
2023/10/03 00:33:04;;;;;;;10.07;9.87;;;18.60;99.90;;;;;;5092630;28;20454;-66
2023/10/03 00:35:31;;;;;;;9.53;9.33;;;18.60;99.90;;;;;;5102759;28;20470;-65
2023/10/03 00:37:58;;;;;;;10.17;9.97;;;18.60;99.90;;;;;;5090574;28;20805;-66
2023/10/03 00:40:28;;;;;;;9.50;9.30;;;18.60;99.90;;;;;;5103463;28;20506;-65
2023/10/03 00:42:58;;;;;;;9.70;9.50;;;18.60;99.90;;;;;;5093418;28;20462;-65
2023/10/03 00:45:26;;;;;;;9.77;9.57;;;18.70;99.90;;;;;;5099721;28;20869;-66
2023/10/03 00:47:54;;;;;;;9.53;9.33;;;18.70;99.90;;;;;;5101338;28;20453;-66
2023/10/03 00:50:25;;;;;;;9.50;9.30;;;18.70;99.90;;;;;;5102355;28;20568;-65
2023/10/03 00:52:55;;;;;;;10.00;9.80;;;18.80;99.90;;;;;;5094651;28;20968;-66
2023/10/03 00:55:24;;;;;;;9.80;9.60;;;18.80;99.90;;;;;;5094111;28;20458;-66
2023/10/03 00:58:01;;;;;;;10.00;9.80;;;18.80;99.90;;;;;;5102455;28;20457;-67
2023/10/03 01:00:29;;;;;;;9.70;9.50;;;18.80;99.90;;;;;;5104336;28;20495;-65
2023/10/03 01:02:58;;;;;;;9.80;9.60;;;18.80;99.90;;;;;;5097386;28;20458;-66
2023/10/03 01:05:28;;;;;;;9.80;9.60;;;18.80;99.90;;;;;;5097308;28;20493;-65
2023/10/03 01:07:55;;;;;;;10.03;9.83;;;18.90;99.90;;;;;;5092373;28;20547;-66
2023/10/03 01:10:22;;;;;;;10.20;10.00;;;18.90;99.90;;;;;;5089033;28;20465;-65
2023/10/03 01:12:54;;;;;;;10.00;9.80;;;18.90;99.90;;;;;;5101388;28;20449;-65
2023/10/03 01:15:22;;;;;;;9.80;9.60;;;18.90;99.90;;;;;;5100784;28;20566;-66
2023/10/03 01:17:53;;;;;;;10.00;9.80;;;18.90;99.90;;;;;;5099603;28;20461;-66
2023/10/03 01:20:29;;;;;;;10.00;9.80;;;19.00;99.90;;;;;;5096200;28;20483;-66
2023/10/03 01:23:00;;;;;;;10.00;9.80;;;19.00;99.90;;;;;;5094472;28;20944;-66
2023/10/03 01:25:29;;;;;;;10.00;9.80;;;19.10;99.90;;;;;;5096168;28;20466;-66
2023/10/03 01:27:57;;;;;;;9.87;9.67;;;19.10;99.90;;;;;;5094938;28;20830;-65
2023/10/03 01:30:23;;;;;;;10.20;10.00;;;19.10;99.90;;;;;;5094577;28;20555;-66
2023/10/03 01:32:55;;;;;;;9.80;9.60;;;19.10;99.90;;;;;;5094990;28;20458;-66
2023/10/03 01:35:22;;;;;;;10.00;9.80;;;19.20;99.90;;;;;;5102032;28;20828;-65
2023/10/03 01:37:49;;;;;;;10.37;10.17;;;19.20;99.90;;;;;;5093158;28;20530;-66
2023/10/03 01:40:17;;;;;;;10.00;9.80;;;19.20;99.90;;;;;;5086953;28;20482;-66
2023/10/03 01:42:47;;;;;;;9.90;9.70;;;19.20;99.90;;;;;;5088681;28;20487;-66
2023/10/03 01:45:17;;;;;;;9.90;9.70;;;19.20;99.90;;;;;;5094458;28;20548;-67
2023/10/03 01:47:46;;;;;;;10.10;9.90;;;19.30;99.90;;;;;;5098607;28;20463;-66
2023/10/03 01:50:14;;;;;;;10.10;9.90;;;19.30;99.90;;;;;;5095732;28;20513;-65
2023/10/03 01:52:41;;;;;;;10.10;9.90;;;19.20;99.90;;;;;;5098653;28;20462;-65
2023/10/03 01:55:10;;;;;;;10.20;10.00;;;19.20;99.90;;;;;;5095370;28;20950;-66
2023/10/03 01:57:39;;;;;;;10.00;9.80;;;19.10;99.90;;;;;;5099399;28;20457;-66
2023/10/03 02:00:20;;;;;;;10.10;9.90;;;19.10;99.90;;;;;;5100305;28;20549;-66
2023/10/03 02:02:47;;;;;;;9.83;9.63;;;19.10;99.90;;;;;;5108882;28;20453;-65
2023/10/03 02:05:15;;;;;;;10.00;9.80;;;19.10;99.90;;;;;;5102067;28;20996;-66
2023/10/03 02:07:42;;;;;;;9.60;9.40;;;19.10;99.90;;;;;;5112503;28;20453;-66
2023/10/03 02:10:12;;;;;;;10.10;9.90;;;19.10;99.90;;;;;;5093272;28;20557;-66
2023/10/03 02:12:43;;;;;;;10.00;9.80;;;19.10;99.90;;;;;;5103736;28;20589;-67
2023/10/03 02:15:14;;;;;;;10.20;10.00;;;19.10;99.90;;;;;;5105676;28;20864;-65
2023/10/03 02:17:41;;;;;;;10.17;9.97;;;19.10;99.90;;;;;;5108780;28;20463;-65
2023/10/03 02:20:13;;;;;;;10.23;10.03;;;19.20;99.90;;;;;;5094444;28;20496;-67
2023/10/03 02:22:41;;;;;;;10.40;10.20;;;19.30;99.90;;;;;;5099617;28;20450;-66
2023/10/03 02:25:09;;;;;;;9.80;9.60;;;19.30;99.90;;;;;;5105500;28;20472;-66
2023/10/03 02:27:36;;;;;;;10.30;10.10;;;19.40;99.90;;;;;;5096927;28;20976;-65
2023/10/03 02:30:12;;;;;;;10.27;10.07;;;19.40;99.90;;;;;;5101574;28;20456;-66
2023/10/03 02:32:41;;;;;;;10.00;9.80;;;19.40;99.90;;;;;;5091608;28;21029;-66
2023/10/03 02:35:10;;;;;;;10.20;10.00;;;19.50;99.90;;;;;;5092947;28;20489;-66
2023/10/03 02:37:38;;;;;;;10.30;10.10;;;19.50;99.90;;;;;;5100876;28;20450;-65
2023/10/03 02:40:08;;;;;;;10.13;9.93;;;19.80;99.90;;;;;;5097354;28;20510;-66
2023/10/03 02:42:39;;;;;;;10.13;9.93;;;19.90;99.90;;;;;;5104129;28;20497;-66
2023/10/03 02:45:07;;;;;;;10.10;9.90;;;20.20;99.90;;;;;;5091547;28;20473;-66
2023/10/03 02:47:37;;;;;;;10.20;10.00;;;20.30;99.90;;;;;;5111443;28;20945;-66
2023/10/03 02:50:08;;;;;;;10.03;9.83;;;20.50;99.90;;;;;;5100183;28;20457;-66
2023/10/03 02:52:35;;;;;;;10.07;9.87;;;20.70;99.90;;;;;;5101990;28;20583;-66
2023/10/03 02:55:02;;;;;;;9.90;9.70;;;20.90;99.90;;;;;;5097367;28;20539;-65
2023/10/03 02:57:29;;;;;;;9.60;9.40;;;21.00;99.90;;;;;;5103048;28;20451;-67
2023/10/03 02:59:56;;;;;;;9.80;9.60;;;21.20;99.90;;;;;;5104470;28;20886;-67
2023/10/03 03:02:25;;;;;;;9.80;9.60;;;21.40;99.90;;;;;;5102270;28;20496;-66
2023/10/03 03:04:54;;;;;;;9.70;9.50;;;21.50;99.90;;;;;;5099079;28;20468;-66
2023/10/03 03:07:24;;;;;;;9.80;9.60;;;21.60;99.90;;;;;;5106388;28;20469;-66
2023/10/03 03:09:56;;;;;;;9.80;9.60;;;21.60;99.90;;;;;;5092983;28;20573;-67
2023/10/03 03:12:23;;;;;;;9.97;9.77;;;21.60;99.90;;;;;;5102931;28;20463;-66
2023/10/03 03:14:52;;;;;;;10.03;9.83;;;21.70;99.90;;;;;;5103952;28;20500;-66
2023/10/03 03:17:20;;;;;;;9.80;9.60;;;21.70;99.90;;;;;;5103899;28;20486;-67
2023/10/03 03:19:49;;;;;;;10.00;9.80;;;21.70;99.90;;;;;;5098141;28;20557;-66
2023/10/03 03:22:16;;;;;;;9.90;9.70;;;21.70;99.90;;;;;;5092162;28;20536;-67
2023/10/03 03:24:51;;;;;;;10.03;9.83;;;21.80;99.90;;;;;;5101192;28;20529;-66
2023/10/03 03:27:18;;;;;;;10.37;10.17;;;21.80;99.90;;;;;;5107420;28;20461;-66
2023/10/03 03:30:09;;;;;;;9.90;9.70;;;21.80;99.90;;;;;;5098018;28;20497;-66
2023/10/03 03:32:35;;;;;;;10.00;9.80;;;21.90;99.90;;;;;;5101574;28;20456;-66
2023/10/03 03:35:06;;;;;;;9.90;9.70;;;21.90;99.90;;;;;;5090995;28;20472;-66
2023/10/03 03:37:37;;;;;;;10.00;9.80;;;21.80;99.90;;;;;;5105381;28;20948;-66
2023/10/03 03:40:21;;;;;;;9.90;9.70;;;21.80;99.90;;;;;;5102282;28;20502;-65
2023/10/03 03:42:48;;;;;;;9.70;9.50;;;21.80;99.90;;;;;;5097033;28;20581;-67
2023/10/03 03:45:17;;;;;;;9.70;9.50;;;21.80;99.90;;;;;;5099900;28;20878;-66
2023/10/03 03:47:44;;;;;;;9.80;9.60;;;21.90;99.90;;;;;;5098474;28;20458;-67
2023/10/03 03:50:12;;;;;;;9.70;9.50;;;21.90;99.90;;;;;;5092589;28;20464;-67
2023/10/03 03:52:43;;;;;;;9.90;9.70;;;21.80;99.90;;;;;;5092557;28;21150;-66
2023/10/03 03:55:12;;;;;;;9.80;9.60;;;21.70;99.90;;;;;;5093029;28;20464;-67
2023/10/03 03:57:40;;;;;;;8.87;8.77;;;21.70;99.90;;;;;;5095802;28;20473;-66
2023/10/03 04:00:14;;;;;;;9.40;9.20;;;21.70;99.90;;;;;;5094668;28;21044;-66
2023/10/03 04:02:42;;;;;;;10.00;9.80;;;21.70;99.90;;;;;;5089570;28;20490;-67
2023/10/03 04:05:11;;;;;;;9.60;9.40;;;21.70;99.90;;;;;;5089609;28;20516;-67
2023/10/03 04:07:40;;;;;;;9.60;9.40;;;21.70;99.90;;;;;;5103935;28;20453;-65
2023/10/03 04:10:13;;;;;;;9.40;9.20;;;21.70;99.90;;;;;;5094137;28;20462;-67
2023/10/03 04:12:41;;;;;;;9.30;9.10;;;21.70;99.90;;;;;;5099426;28;20458;-67
2023/10/03 04:15:12;;;;;;;9.23;9.07;;;21.90;99.90;;;;;;5096237;28;20469;-67
2023/10/03 04:17:40;;;;;;;8.87;8.77;;;21.90;99.90;;;;;;5101977;28;20454;-66
2023/10/03 04:20:18;;;;;;;8.80;8.70;;;21.90;99.90;;;;;;5096204;28;20553;-68
2023/10/03 04:22:46;;;;;;;8.83;8.73;;;22.00;99.90;;;;;;5105405;28;20788;-67
2023/10/03 04:25:15;;;;;;;9.23;9.03;;;22.00;99.90;;;;;;5105714;28;20502;-66
2023/10/03 04:27:43;;;;;;;9.10;9.00;;;22.00;99.90;;;;;;5095116;28;20561;-66
2023/10/03 04:30:13;;;;;;;9.10;9.00;;;21.90;99.90;;;;;;5094904;28;20477;-66
2023/10/03 04:32:39;;;;;;;9.30;9.10;;;21.90;99.90;;;;;;5101711;28;20504;-66
2023/10/03 04:35:11;;;;;;;9.00;8.90;;;21.80;99.90;;;;;;5089185;28;20457;-67
2023/10/03 04:37:39;;;;;;;9.10;9.00;;;21.70;99.90;;;;;;5102978;28;20460;-67
2023/10/03 04:40:13;;;;;;;9.10;9.00;;;21.70;99.90;;;;;;5090982;28;20501;-66
2023/10/03 04:42:43;;;;;;;9.30;9.10;;;21.60;99.90;;;;;;5093028;28;20988;-66
2023/10/03 04:45:13;;;;;;;9.40;9.20;;;21.40;99.90;;;;;;5100724;28;20456;-67
2023/10/03 04:47:41;;;;;;;9.50;9.30;;;21.40;99.90;;;;;;5109217;27;20453;-68
2023/10/03 04:50:10;;;;;;;9.70;9.50;;;21.30;99.90;;;;;;5094570;28;20458;-66
2023/10/03 04:52:37;;;;;;;9.23;9.07;;;21.30;99.90;;;;;;5091689;28;20457;-65
2023/10/03 04:55:05;;;;;;;9.03;8.93;;;21.30;99.90;;;;;;5107168;28;20500;-67
2023/10/03 04:57:31;;;;;;;9.50;9.30;;;21.20;99.90;;;;;;5091100;28;20461;-66
2023/10/03 05:00:00;;;;;;;9.23;9.07;;;21.20;99.90;;;;;;5105632;28;20463;-65
2023/10/03 05:02:28;;;;;;;9.33;9.13;;;21.10;99.90;;;;;;5086709;28;21100;-66
2023/10/03 05:04:55;;;;;;;9.10;9.00;;;21.20;99.90;;;;;;5095827;28;20496;-66
2023/10/03 05:07:23;;;;;;;9.10;9.00;;;21.20;99.90;;;;;;5095102;28;20826;-65
2023/10/03 05:09:51;;;;;;;9.30;9.13;;;21.10;99.90;;;;;;5089696;28;20462;-67
2023/10/03 05:12:20;;;;;;;9.10;9.00;;;21.00;99.90;;;;;;5094815;28;20453;-66
2023/10/03 05:14:48;;;;;;;8.80;8.70;;;21.00;99.90;;;;;;5097981;28;20483;-66
2023/10/03 05:17:18;;;;;;;9.37;9.17;;;20.90;99.90;;;;;;5100480;28;20480;-66
2023/10/03 05:19:45;;;;;;;9.40;9.20;;;20.90;99.90;;;;;;5092054;28;20458;-65
2023/10/03 05:22:13;;;;;;;9.40;9.20;;;20.80;99.90;;;;;;5093151;28;20480;-67
2023/10/03 05:24:40;;;;;;;9.23;9.03;;;20.80;99.90;;;;;;5092497;28;20466;-66
2023/10/03 05:27:09;;;;;;;8.97;8.87;;;20.70;99.90;;;;;;5095371;28;20810;-67
2023/10/03 05:29:37;;;;;;;9.60;9.40;;;20.60;99.90;;;;;;5090958;28;20969;-66
2023/10/03 05:32:05;;;;;;;8.90;8.80;;;20.60;99.90;;;;;;5089720;28;20475;-65
2023/10/03 05:34:34;;;;;;;8.80;8.70;;;20.60;99.90;;;;;;5096284;28;20453;-67
2023/10/03 05:37:02;;;;;;;8.97;8.83;;;20.60;99.90;;;;;;5091895;28;20850;-66
2023/10/03 05:39:31;;;;;;;8.60;8.50;;;20.50;99.90;;;;;;5099342;28;20563;-67
2023/10/03 05:41:57;;;;;;;8.60;8.50;;;20.50;99.90;;;;;;5098923;28;20512;-65
2023/10/03 05:44:25;;;;;;;8.93;8.83;;;20.50;99.90;;;;;;5091107;28;20829;-66
2023/10/03 05:46:55;;;;;;;8.60;8.50;;;20.50;99.90;;;;;;5096335;28;20457;-66
2023/10/03 05:49:23;;;;;;;8.60;8.50;;;20.40;99.90;;;;;;5097487;28;20457;-65
2023/10/03 05:51:55;;;;;;;8.73;8.63;;;20.40;99.90;;;;;;5105249;28;20488;-66
2023/10/03 05:54:24;;;;;;;8.73;8.63;;;20.40;99.90;;;;;;5093825;28;20484;-66
2023/10/03 05:56:52;;;;;;;8.60;8.50;;;20.40;99.90;;;;;;5095169;28;20568;-66
2023/10/03 05:59:20;;;;;;;8.60;8.50;;;20.40;99.90;;;;;;5107543;28;20457;-66
2023/10/03 06:01:47;;;;;;;8.40;8.30;;;20.40;99.90;;;;;;5093810;28;20656;-66
2023/10/03 06:04:14;;;;;;;8.20;8.10;;;20.40;99.90;;;;;;5089742;28;20461;-67
2023/10/03 06:06:41;;;;;;;8.20;8.10;;;20.40;99.90;;;;;;5095915;28;20963;-66
2023/10/03 06:09:11;;;;;;;8.30;8.20;;;20.40;99.90;;;;;;5101109;28;20468;-67
2023/10/03 06:11:39;;;;;;;8.50;8.40;;;20.40;99.90;;;;;;5103825;28;20488;-67
2023/10/03 06:14:05;;;;;;;8.33;8.23;;;20.30;99.90;;;;;;5097839;28;20450;-66
2023/10/03 06:16:33;;;;;;;8.40;8.30;;;20.20;99.90;;;;;;5092041;28;20472;-66
2023/10/03 06:19:00;;;;;;;8.20;8.10;;;20.30;99.90;;;;;;5096403;28;20468;-66
2023/10/03 06:21:29;;;;;;;8.00;7.90;;;20.20;99.90;;;;;;5099362;28;20497;-67
2023/10/03 06:23:56;;;;;;;8.20;8.10;;;20.20;99.90;;;;;;5099952;28;20457;-66
2023/10/03 06:26:25;;;;;;;8.10;8.00;;;20.20;99.90;;;;;;5098139;28;20469;-66
2023/10/03 06:28:53;;;;;;;7.90;7.80;;;20.10;99.90;;;;;;5085155;28;21747;-67
2023/10/03 06:31:21;;;;;;;7.80;7.70;;;20.10;99.90;;;;;;5087592;28;20832;-67
2023/10/03 06:33:49;;;;;;;7.57;7.47;;;20.10;99.90;;;;;;5093152;28;21015;-66
2023/10/03 06:36:16;;;;;;;7.60;7.50;;;20.10;99.90;;;;;;5094604;28;20464;-67
2023/10/03 06:38:43;;;;;;;7.80;7.70;;;20.10;99.90;;;;;;5090130;27;20458;-66
2023/10/03 06:41:17;;;;;;;8.10;8.00;;;20.20;99.90;;;;;;5090401;28;20458;-66
2023/10/03 06:43:45;;;;;;;7.83;7.73;;;20.10;99.90;;;;;;5089786;28;20501;-66
2023/10/03 06:46:12;;;;;;;7.90;7.80;;;20.10;99.90;;;;;;5100399;28;20453;-66
2023/10/03 06:48:39;;;;;;;7.90;7.80;;;20.20;99.90;;;;;;5103790;28;20512;-66
2023/10/03 06:51:09;;;;;;;7.80;7.70;;;20.20;99.90;;;;;;5091323;28;20463;-66
2023/10/03 06:53:36;;;;;;;8.00;7.90;;;20.10;99.90;;;;;;5092701;28;20800;-67
2023/10/03 06:56:03;;;;;;;7.93;7.83;;;20.00;99.90;;;;;;5091854;28;21022;-67
2023/10/03 06:58:30;;;;;;;8.10;8.00;;;20.00;99.90;;;;;;5099401;28;20481;-67
2023/10/03 07:00:59;;;;;;;7.80;7.70;;;20.00;99.90;;;;;;5093610;28;20588;-66
2023/10/03 07:03:25;;;;;;;7.90;7.80;;;20.00;99.90;;;;;;5101148;28;20529;-65
2023/10/03 07:05:53;;;;;;;8.00;7.90;;;20.00;99.90;;;;;;5103527;28;20461;-67
2023/10/03 07:08:19;;;;;;;7.90;7.80;;;20.00;99.90;;;;;;5093285;28;20466;-67
2023/10/03 07:10:46;;;;;;;8.10;8.00;;;20.00;99.90;;;;;;5090678;28;21003;-66
2023/10/03 07:13:14;;;;;;;8.40;8.30;;;20.00;99.90;;;;;;5091503;28;20484;-67
2023/10/03 07:15:42;;;;;;;8.20;8.10;;;20.00;99.90;;;;;;5102464;28;21042;-67
2023/10/03 07:18:11;;;;;;;7.90;7.80;;;19.90;99.90;;;;;;5101055;28;20507;-68
2023/10/03 07:20:40;;;;;;;8.10;8.00;;;19.90;99.90;;;;;;5096114;28;20466;-67
2023/10/03 07:23:08;;;;;;;8.50;8.40;;;19.90;99.90;;;;;;5097963;28;20576;-67
2023/10/03 07:25:36;;;;;;;8.20;8.10;;;19.90;99.90;;;;;;5098899;28;20445;-66
2023/10/03 07:28:03;;;;;;;8.27;8.17;;;19.90;99.90;;;;;;5110101;28;20460;-67
2023/10/03 07:30:30;;;;;;;8.17;8.07;;;20.00;99.90;;;;;;5096448;28;20468;-67
2023/10/03 07:32:57;;;;;;;7.90;7.80;;;20.00;99.90;;;;;;5093732;28;20467;-67
2023/10/03 07:35:26;;;;;;;8.00;7.90;;;20.10;99.90;;;;;;5092104;28;20465;-67
2023/10/03 07:37:52;;;;;;;8.20;8.10;;;20.00;99.90;;;;;;5104534;28;20492;-66
2023/10/03 07:40:22;;;;;;;7.97;7.87;;;20.00;99.90;;;;;;5098056;28;21218;-66
2023/10/03 07:42:50;;;;;;;8.20;8.10;;;20.00;99.90;;;;;;5102325;28;20984;-66
2023/10/03 07:45:18;;;;;;;8.30;8.20;;;20.00;99.90;;;;;;5095582;28;20957;-65
2023/10/03 07:47:46;;;;;;;7.97;7.87;;;20.10;99.90;;;;;;5102017;28;20477;-66
2023/10/03 07:50:14;;;;;;;8.10;8.00;;;20.10;99.90;;;;;;5100989;27;20453;-67
2023/10/03 07:52:48;;;;;;;8.30;8.20;;;20.00;99.90;;;;;;5096371;28;20544;-67
2023/10/03 07:55:16;;;;;;;8.20;8.10;;;20.10;99.90;;;;;;5097004;28;20823;-66
2023/10/03 07:57:43;;;;;;;8.60;8.50;;;20.30;99.90;;;;;;5094459;28;20466;-66
2023/10/03 08:00:20;;;;;;;8.70;8.60;;;20.30;99.90;;;;;;5095497;28;20453;-67
2023/10/03 08:02:49;;;;;;;8.40;8.30;;;20.50;99.90;;;;;;5094150;28;20490;-67
2023/10/03 08:05:17;;;;;;;8.73;8.63;;;20.40;99.90;;;;;;5103666;28;20459;-66
2023/10/03 08:07:47;;;;;;;8.37;8.27;;;20.50;99.90;;;;;;5109152;28;20448;-66
2023/10/03 08:10:17;;;;;;;8.30;8.20;;;20.50;99.90;;;;;;5095953;28;20458;-68
2023/10/03 08:12:47;;;;;;;8.47;8.37;;;20.50;99.90;;;;;;5095372;27;20830;-68
2023/10/03 08:15:17;;;;;;;8.70;8.60;;;20.50;99.90;;;;;;5095955;28;20478;-67
2023/10/03 08:17:53;;;;;;;9.03;8.90;;;20.70;99.90;;;;;;5097285;28;20534;-66
2023/10/03 08:20:21;;;;;;;8.30;8.20;;;20.70;99.90;;;;;;5096899;28;20940;-67
2023/10/03 08:22:52;;;;;;;9.60;9.40;;;20.70;99.90;;;;;;5095435;28;20539;-67
2023/10/03 08:25:21;;;;;;;9.30;9.10;;;20.60;99.90;;;;;;5100732;28;20937;-67
2023/10/03 08:27:49;;;;;;;8.60;8.50;;;20.40;99.90;;;;;;5094187;28;21025;-68
2023/10/03 08:30:27;;;;;;;8.53;8.43;;;20.20;99.90;;;;;;5093230;28;20461;-67
2023/10/03 08:32:56;;;;;;;7.10;7.00;;;19.90;99.90;;;;;;5095206;28;20457;-67
2023/10/03 08:35:34;;;;;;;7.20;7.10;;;19.80;99.90;;;;;;5096162;28;20461;-67
2023/10/03 08:38:06;;;;;;;7.00;6.90;;;19.70;99.90;;;;;;5104737;28;20471;-67
2023/10/03 08:40:40;;;;;;;6.90;6.80;;;19.80;99.90;;;;;;5095982;27;20608;-66
2023/10/03 08:43:11;;;;;;;6.83;6.73;;;19.90;99.90;;;;;;5094554;28;20588;-66
2023/10/03 08:45:43;;;;;;;7.30;7.20;;;20.00;99.90;;;;;;5095416;28;20456;-66
2023/10/03 08:48:11;;;;;;;7.87;7.77;;;20.00;99.90;;;;;;5097808;28;20472;-67
2023/10/03 08:50:46;;;;;;;7.80;7.70;;;19.90;99.90;;;;;;5086625;28;20545;-66
2023/10/03 08:53:16;;;;;;;7.50;7.40;;;20.00;99.90;;;;;;5087993;28;21249;-66
2023/10/03 08:55:45;;;;;;;7.93;7.83;;;20.10;99.90;;;;;;5090148;28;20466;-67
2023/10/03 08:58:15;;;;;;;7.57;7.47;;;20.20;99.90;;;;;;5096221;28;20511;-66
2023/10/03 09:00:46;;;;;;;8.10;8.00;;;20.40;99.90;;;;;;5099745;28;20452;-66
2023/10/03 09:03:14;;;;;;;7.87;7.77;;;20.50;99.90;;;;;;5094476;28;20473;-67
2023/10/03 09:05:41;;;;;;;8.17;8.07;;;20.40;99.90;;;;;;5083735;28;20551;-66
2023/10/03 09:08:09;;;;;;;8.20;8.10;;;20.40;99.90;;;;;;5086139;28;20468;-67
2023/10/03 09:10:51;;;;;;;8.10;8.00;;;20.40;99.90;;;;;;5094791;28;20553;-67
2023/10/03 09:13:23;;;;;;;7.83;7.73;;;20.50;99.90;;;;;;5089544;28;20457;-67
2023/10/03 09:15:59;;;;;;;8.50;8.40;;;20.70;99.90;;;;;;5105736;28;20526;-66
2023/10/03 09:18:31;;;;;;;8.20;8.10;;;20.90;99.90;;;;;;5102722;28;20457;-66
2023/10/03 09:21:00;;;;;;;8.60;8.50;;;21.00;99.90;;;;;;5092852;28;20450;-66
2023/10/03 09:23:38;;;;;;;8.60;8.50;;;21.00;99.90;;;;;;5086501;28;20580;-66
2023/10/03 09:26:06;;;;;;;9.37;9.17;;;21.00;99.90;;;;;;5088734;28;20519;-67
2023/10/03 09:28:36;;;;;;;9.03;8.83;;;21.00;99.90;;;;;;5093179;28;20489;-66
2023/10/03 09:31:08;;;;;;;8.43;8.33;;;20.80;99.90;;;;;;5106264;28;20449;-67
2023/10/03 09:33:38;;;;;;;8.30;8.20;;;20.70;99.90;;;;;;5090995;28;20460;-66
2023/10/03 09:36:06;;;;;;;8.50;8.40;;;20.60;99.90;;;;;;5090876;28;20466;-67
2023/10/03 09:38:44;;;;;;;8.30;8.20;;;20.90;99.90;;;;;;5104365;28;21022;-67
2023/10/03 09:41:21;;;;;;;8.40;8.30;;;21.00;99.90;;;;;;5094472;28;20842;-68
2023/10/03 09:43:53;;;;;;;8.83;8.73;;;21.00;99.90;;;;;;5095962;28;20778;-68
2023/10/03 09:46:25;;;;;;;9.47;9.27;;;21.10;99.90;;;;;;5099217;28;20457;-67
2023/10/03 09:48:54;;;;;;;9.07;8.93;;;21.10;99.90;;;;;;5089295;28;21034;-67
2023/10/03 09:51:36;;;;;;;9.07;8.93;;;21.20;99.90;;;;;;5103137;28;20457;-67
2023/10/03 09:54:07;;;;;;;8.60;8.50;;;21.30;99.90;;;;;;5094509;28;20449;-66
2023/10/03 09:56:40;;;;;;;8.70;8.60;;;21.10;99.90;;;;;;5093564;28;20553;-67
2023/10/03 09:59:08;;;;;;;8.60;8.50;;;21.20;99.90;;;;;;5106416;28;20449;-67
2023/10/03 10:01:36;;;;;;;8.60;8.50;;;21.30;99.90;;;;;;5090585;28;20569;-67
2023/10/03 10:04:07;;;;;;;8.60;8.50;;;21.20;99.90;;;;;;5095736;28;20525;-67
2023/10/03 10:06:41;;;;;;;8.70;8.60;;;21.20;99.90;;;;;;5100865;28;20457;-67
2023/10/03 10:09:14;;;;;;;8.83;8.73;;;21.20;99.90;;;;;;5095562;28;20460;-67
2023/10/03 10:12:18;;;;;;;8.50;8.40;;;21.00;99.90;;;;;;5093993;28;20466;-68
2023/10/03 10:15:17;;;;;;;8.10;8.00;;;21.00;99.90;;;;;;5092186;28;20461;-67
2023/10/03 10:17:54;;;;;;;21.47;20.17;;;20.50;99.90;;;;;;5091655;28;20454;-66
2023/10/03 10:20:27;;;;;;;13.40;12.90;;;20.00;99.90;;;;;;5088368;28;23038;-68
2023/10/03 10:23:13;;;;;;;11.83;11.53;;;18.80;99.90;;;;;;5090144;28;20972;-67
2023/10/03 10:25:49;;;;;;;9.17;8.97;;;17.30;99.90;;;;;;5095364;28;20511;-68
2023/10/03 10:28:21;;;;;;;6.70;6.60;;;17.00;99.90;;;;;;5109454;28;20967;-68
2023/10/03 10:31:21;;;;;;;6.07;5.97;;;16.80;99.90;;;;;;5107628;28;20516;-67
2023/10/03 10:33:51;;;;;;;5.20;5.17;;;16.80;99.90;;;;;;5099115;28;20753;-68
2023/10/03 10:36:19;;;;;;;5.93;5.83;;;16.80;99.90;;;;;;5101815;28;20466;-67
2023/10/03 10:38:56;;;;;;;6.90;6.80;;;16.80;99.90;;;;;;5103180;28;20449;-66
2023/10/03 10:41:30;;;;;;;8.90;8.80;;;16.80;99.90;;;;;;5104590;28;20541;-67
2023/10/03 10:44:07;;;;;;;12.00;11.70;;;16.90;99.90;;;;;;5099855;28;20872;-64
2023/10/03 10:46:38;;;;;;;13.03;12.73;;;16.90;99.90;;;;;;5098482;28;20556;-67
2023/10/03 10:49:06;;;;;;;13.20;12.90;;;17.00;99.90;;;;;;5103034;28;20450;-67
2023/10/03 10:51:34;;;;;;;13.43;13.13;;;17.10;99.90;;;;;;5105756;28;20458;-67
2023/10/03 10:54:04;;;;;;;12.03;11.73;;;17.10;99.90;;;;;;5096008;28;20466;-68
2023/10/03 10:56:32;;;;;;;10.50;10.30;;;17.10;99.90;;;;;;5106805;28;21273;-67
2023/10/03 10:59:04;;;;;;;8.10;8.00;;;17.30;99.90;;;;;;5109838;28;20463;-66
2023/10/03 11:01:36;;;;;;;7.87;7.77;;;17.40;99.90;;;;;;5108558;28;20472;-66
2023/10/03 11:04:06;;;;;;;8.17;8.07;;;17.50;99.90;;;;;;5094755;28;20474;-66
2023/10/03 11:06:33;;;;;;;8.60;8.50;;;17.50;99.90;;;;;;5103709;28;20505;-66
2023/10/03 11:09:00;;;;;;;9.10;8.90;;;17.50;99.90;;;;;;5100487;28;20468;-65
2023/10/03 11:11:38;;;;;;;8.70;8.60;;;17.60;99.90;;;;;;5103261;28;20458;-66
2023/10/03 11:14:08;;;;;;;9.90;9.70;;;17.60;99.90;;;;;;5098145;28;20469;-66
2023/10/03 11:16:35;;;;;;;9.50;9.30;;;17.50;99.90;;;;;;5091684;28;20510;-66
2023/10/03 11:19:07;;;;;;;9.37;9.17;;;17.30;99.90;;;;;;5097555;28;20839;-65
2023/10/03 11:21:34;;;;;;;10.80;10.50;;;17.30;99.90;;;;;;5103700;28;20482;-66
2023/10/03 11:24:13;;;;;;;10.00;9.80;;;17.20;99.90;;;;;;5096561;28;20487;-65
2023/10/03 11:26:58;;;;;;;11.07;10.77;;;17.10;99.90;;;;;;5096215;28;20461;-66
2023/10/03 11:29:43;;;;;;;9.33;9.13;;;17.10;99.90;;;;;;5088791;28;20572;-66
2023/10/03 11:32:24;;;;;;;8.93;8.77;;;17.20;99.90;;;;;;5097095;28;20462;-67
2023/10/03 11:34:54;;;;;;;7.97;7.87;;;17.30;99.90;;;;;;5089563;28;20474;-65
2023/10/03 11:37:36;;;;;;;8.00;7.90;;;17.30;99.90;;;;;;5094424;28;20545;-65
2023/10/03 11:40:13;;;;;;;7.90;7.80;;;17.30;99.90;;;;;;5096597;28;20564;-65
2023/10/03 11:42:54;;;;;;;8.00;7.90;;;17.30;99.90;;;;;;5099169;28;20825;-65
2023/10/03 11:45:22;;;;;;;7.70;7.60;;;17.50;99.90;;;;;;5098509;28;20485;-66
2023/10/03 11:48:05;;;;;;;8.10;8.00;;;17.50;99.90;;;;;;5107082;28;20456;-64
2023/10/03 11:50:36;;;;;;;7.83;7.73;;;17.40;99.90;;;;;;5104114;28;20866;-66
2023/10/03 11:53:04;;;;;;;7.70;7.60;;;17.50;99.90;;;;;;5096513;28;20469;-65
2023/10/03 11:55:33;;;;;;;7.97;7.87;;;17.40;99.90;;;;;;5099412;28;20835;-65
2023/10/03 11:58:00;;;;;;;7.47;7.37;;;17.50;99.90;;;;;;5099988;28;20454;-65
2023/10/03 12:00:28;;;;;;;7.60;7.50;;;17.50;99.90;;;;;;5102003;28;20464;-64
2023/10/03 12:02:56;;;;;;;6.70;6.60;;;17.50;99.90;;;;;;5089206;28;21022;-65
2023/10/03 12:05:26;;;;;;;6.10;6.00;;;17.60;99.90;;;;;;5089300;28;20520;-66
2023/10/03 12:07:56;;;;;;;6.37;6.27;;;17.60;99.90;;;;;;5091234;28;20531;-66
2023/10/03 12:10:24;;;;;;;6.10;6.00;;;17.70;99.90;;;;;;5089169;28;20466;-64
2023/10/03 12:12:53;;;;;;;6.70;6.60;;;17.60;99.90;;;;;;5105334;28;20506;-66
2023/10/03 12:15:22;;;;;;;6.50;6.40;;;17.60;99.90;;;;;;5094012;28;20489;-66
2023/10/03 12:17:50;;;;;;;6.80;6.70;;;17.80;99.90;;;;;;5096111;28;20656;-65
2023/10/03 12:20:19;;;;;;;7.53;7.43;;;17.90;99.90;;;;;;5091446;28;20470;-65
2023/10/03 12:22:48;;;;;;;7.17;7.07;;;17.90;99.90;;;;;;5099037;28;20461;-66
2023/10/03 12:25:18;;;;;;;7.40;7.30;;;17.90;99.90;;;;;;5107045;28;20473;-66
2023/10/03 12:27:45;;;;;;;7.20;7.10;;;17.80;99.90;;;;;;5097118;28;21028;-66
2023/10/03 12:30:15;;;;;;;7.30;7.20;;;17.70;99.90;;;;;;5088975;28;20745;-65
2023/10/03 12:32:44;;;;;;;7.43;7.33;;;17.70;99.90;;;;;;5098909;28;20485;-65
2023/10/03 12:35:12;;;;;;;7.00;6.90;;;17.80;99.90;;;;;;5088326;28;21067;-66
2023/10/03 12:37:40;;;;;;;7.80;7.70;;;17.90;99.90;;;;;;5097681;28;20888;-65
2023/10/03 12:40:13;;;;;;;8.50;8.40;;;17.90;99.90;;;;;;5090826;28;20482;-65
2023/10/03 12:42:43;;;;;;;8.67;8.57;;;17.90;99.90;;;;;;5106352;28;20461;-67
2023/10/03 12:45:13;;;;;;;8.63;8.53;;;18.20;99.90;;;;;;5093238;28;20968;-66
2023/10/03 12:47:46;;;;;;;8.77;8.67;;;18.50;99.90;;;;;;5096994;28;20468;-67
2023/10/03 12:50:14;;;;;;;8.70;8.60;;;18.70;99.90;;;;;;5099443;28;20959;-66
2023/10/03 12:52:42;;;;;;;9.70;9.50;;;19.00;99.90;;;;;;5099653;28;21178;-67
2023/10/03 12:55:09;;;;;;;10.30;10.10;;;18.80;99.90;;;;;;5096497;28;20912;-66
2023/10/03 12:57:37;;;;;;;9.90;9.70;;;18.60;99.90;;;;;;5105807;28;20457;-66